sensor_id;sensor_type;location;lat;lon;timestamp;pressure;altitude;pressure_sealevel;temperature;humidity
60427;BME280;46274;47.168;27.604;2023-06-10T00:04:45;99355.81;;;17.21;62.25
60427;BME280;46274;47.168;27.604;2023-06-10T00:10:58;99468.34;;;17.78;62.50
60427;BME280;46274;47.168;27.604;2023-06-10T00:17:05;99509.44;;;17.66;65.22
60427;BME280;46274;47.168;27.604;2023-06-10T00:23:13;99470.84;;;17.68;63.49
60427;BME280;46274;47.168;27.604;2023-06-10T00:29:23;99500.44;;;17.90;62.31
60427;BME280;46274;47.168;27.604;2023-06-10T00:35:44;99531.84;;;15.74;74.24
60427;BME280;46274;47.168;27.604;2023-06-10T00:42:14;99523.69;;;17.03;67.94
60427;BME280;46274;47.168;27.604;2023-06-10T00:48:17;99430.44;;;15.89;69.76
60427;BME280;46274;47.168;27.604;2023-06-10T00:54:21;99527.34;;;14.98;75.93
60427;BME280;46274;47.168;27.604;2023-06-10T01:00:52;99522.56;;;16.74;68.12
60427;BME280;46274;47.168;27.604;2023-06-10T01:13:21;99534.38;;;15.12;76.37
60427;BME280;46274;47.168;27.604;2023-06-10T01:19:25;99392.47;;;14.10;78.35
60427;BME280;46274;47.168;27.604;2023-06-10T01:25:41;99534.03;;;14.57;79.38
60427;BME280;46274;47.168;27.604;2023-06-10T01:32:21;99531.06;;;15.03;76.60
60427;BME280;46274;47.168;27.604;2023-06-10T01:38:46;99537.78;;;16.51;67.91
60427;BME280;46274;47.168;27.604;2023-06-10T01:44:55;99461.41;;;15.01;74.90
60427;BME280;46274;47.168;27.604;2023-06-10T01:50:59;99529.94;;;16.00;72.07
60427;BME280;46274;47.168;27.604;2023-06-10T01:57:03;99422.06;;;16.02;68.41
60427;BME280;46274;47.168;27.604;2023-06-10T02:03:16;99501.69;;;16.61;68.19
60427;BME280;46274;47.168;27.604;2023-06-10T02:09:21;99540.22;;;16.60;68.64
60427;BME280;46274;47.168;27.604;2023-06-10T02:15:24;99438.00;;;16.05;68.04
60427;BME280;46274;47.168;27.604;2023-06-10T02:21:28;99534.06;;;16.27;69.92
60427;BME280;46274;47.168;27.604;2023-06-10T02:27:31;99531.00;;;15.99;71.77
60427;BME280;46274;47.168;27.604;2023-06-10T02:40:35;99483.03;;;16.40;68.52
60427;BME280;46274;47.168;27.604;2023-06-10T02:46:39;99525.78;;;16.71;67.91
60427;BME280;46274;47.168;27.604;2023-06-10T02:52:45;99551.91;;;16.85;68.41
60427;BME280;46274;47.168;27.604;2023-06-10T02:58:47;99496.00;;;16.63;66.40
60427;BME280;46274;47.168;27.604;2023-06-10T03:05:01;99534.44;;;16.68;69.01
60427;BME280;46274;47.168;27.604;2023-06-10T03:11:05;99492.53;;;16.19;69.95
60427;BME280;46274;47.168;27.604;2023-06-10T03:17:08;99549.31;;;16.90;68.33
60427;BME280;46274;47.168;27.604;2023-06-10T03:23:10;99520.28;;;15.97;71.96
60427;BME280;46274;47.168;27.604;2023-06-10T03:29:15;99550.41;;;16.71;70.45
60427;BME280;46274;47.168;27.604;2023-06-10T03:35:17;99570.97;;;17.10;69.83
60427;BME280;46274;47.168;27.604;2023-06-10T03:41:27;99523.06;;;17.31;68.29
60427;BME280;46274;47.168;27.604;2023-06-10T03:47:36;99499.66;;;17.59;68.63
60427;BME280;46274;47.168;27.604;2023-06-10T03:53:49;99569.91;;;18.07;69.38
60427;BME280;46274;47.168;27.604;2023-06-10T03:59:54;99563.69;;;19.11;66.07
60427;BME280;46274;47.168;27.604;2023-06-10T04:06:05;99523.50;;;20.01;63.54
60427;BME280;46274;47.168;27.604;2023-06-10T04:12:13;99566.81;;;19.77;64.96
60427;BME280;46274;47.168;27.604;2023-06-10T04:18:18;99500.66;;;19.50;64.36
60427;BME280;46274;47.168;27.604;2023-06-10T04:24:37;99561.53;;;20.65;63.18
60427;BME280;46274;47.168;27.604;2023-06-10T04:30:44;99552.19;;;21.10;60.17
60427;BME280;46274;47.168;27.604;2023-06-10T04:36:54;99493.81;;;20.64;60.58
60427;BME280;46274;47.168;27.604;2023-06-10T04:43:03;99572.53;;;21.31;60.98
60427;BME280;46274;47.168;27.604;2023-06-10T04:49:06;99561.97;;;22.14;58.15
60427;BME280;46274;47.168;27.604;2023-06-10T04:55:18;99383.53;;;20.71;58.44
60427;BME280;46274;47.168;27.604;2023-06-10T05:01:35;99421.09;;;21.14;59.11
60427;BME280;46274;47.168;27.604;2023-06-10T05:07:42;99373.81;;;21.22;57.63
60427;BME280;46274;47.168;27.604;2023-06-10T05:13:52;99481.94;;;22.14;57.67
60427;BME280;46274;47.168;27.604;2023-06-10T05:19:56;99329.22;;;21.30;57.04
60427;BME280;46274;47.168;27.604;2023-06-10T05:26:16;99564.16;;;23.07;56.79
60427;BME280;46274;47.168;27.604;2023-06-10T05:32:24;99483.69;;;21.46;58.89
60427;BME280;46274;47.168;27.604;2023-06-10T05:38:39;99496.88;;;22.13;57.25
60427;BME280;46274;47.168;27.604;2023-06-10T05:44:49;99555.88;;;22.50;57.45
60427;BME280;46274;47.168;27.604;2023-06-10T05:51:04;99560.38;;;23.29;55.48
60427;BME280;46274;47.168;27.604;2023-06-10T05:57:09;99560.66;;;23.43;55.75
60427;BME280;46274;47.168;27.604;2023-06-10T06:03:13;99470.19;;;23.02;54.13
60427;BME280;46274;47.168;27.604;2023-06-10T06:09:28;99559.22;;;23.15;55.39
60427;BME280;46274;47.168;27.604;2023-06-10T06:15:31;99534.13;;;23.32;53.74
60427;BME280;46274;47.168;27.604;2023-06-10T06:21:34;99447.84;;;23.04;53.79
60427;BME280;46274;47.168;27.604;2023-06-10T06:27:40;99419.03;;;22.79;53.95
60427;BME280;46274;47.168;27.604;2023-06-10T06:33:49;99546.59;;;23.55;53.16
60427;BME280;46274;47.168;27.604;2023-06-10T06:39:54;99512.28;;;23.71;53.35
60427;BME280;46274;47.168;27.604;2023-06-10T06:45:58;99319.34;;;23.17;52.85
60427;BME280;46274;47.168;27.604;2023-06-10T06:52:05;99393.91;;;23.93;51.85
60427;BME280;46274;47.168;27.604;2023-06-10T06:58:32;99326.72;;;23.83;51.50
60427;BME280;46274;47.168;27.604;2023-06-10T07:04:47;99529.16;;;25.01;50.32
60427;BME280;46274;47.168;27.604;2023-06-10T07:11:04;99448.91;;;24.05;48.59
60427;BME280;46274;47.168;27.604;2023-06-10T07:17:11;99533.72;;;25.31;48.25
60427;BME280;46274;47.168;27.604;2023-06-10T07:23:14;99456.25;;;24.56;48.36
60427;BME280;46274;47.168;27.604;2023-06-10T07:29:18;99332.88;;;24.24;47.71
60427;BME280;46274;47.168;27.604;2023-06-10T07:35:21;99456.19;;;25.50;46.28
60427;BME280;46274;47.168;27.604;2023-06-10T07:41:27;99450.69;;;26.08;45.75
60427;BME280;46274;47.168;27.604;2023-06-10T07:47:52;99286.38;;;24.71;43.29
60427;BME280;46274;47.168;27.604;2023-06-10T07:54:09;99508.25;;;25.98;45.30
60427;BME280;46274;47.168;27.604;2023-06-10T08:00:22;99482.25;;;26.18;43.22
60427;BME280;46274;47.168;27.604;2023-06-10T08:06:29;99503.44;;;26.32;43.44
60427;BME280;46274;47.168;27.604;2023-06-10T08:12:37;99426.63;;;26.47;42.72
60427;BME280;46274;47.168;27.604;2023-06-10T08:18:47;99511.41;;;27.30;41.17
60427;BME280;46274;47.168;27.604;2023-06-10T08:25:03;99430.00;;;27.25;40.32
60427;BME280;46274;47.168;27.604;2023-06-10T08:31:19;99429.09;;;27.29;40.25
60427;BME280;46274;47.168;27.604;2023-06-10T08:37:45;99473.22;;;27.69;38.44
60427;BME280;46274;47.168;27.604;2023-06-10T08:44:15;99506.41;;;27.98;38.65
60427;BME280;46274;47.168;27.604;2023-06-10T08:50:21;99500.59;;;28.27;38.09
60427;BME280;46274;47.168;27.604;2023-06-10T08:56:39;99298.47;;;26.72;35.90
60427;BME280;46274;47.168;27.604;2023-06-10T09:03:07;99406.22;;;27.32;36.37
60427;BME280;46274;47.168;27.604;2023-06-10T09:09:45;99478.91;;;28.93;36.41
60427;BME280;46274;47.168;27.604;2023-06-10T09:15:51;99385.84;;;28.11;36.20
60427;BME280;46274;47.168;27.604;2023-06-10T09:21:54;99459.03;;;28.44;34.98
60427;BME280;46274;47.168;27.604;2023-06-10T09:28:17;99470.81;;;29.64;34.55
60427;BME280;46274;47.168;27.604;2023-06-10T09:34:31;99374.38;;;27.57;35.33
60427;BME280;46274;47.168;27.604;2023-06-10T09:40:48;99480.72;;;27.35;35.25
60427;BME280;46274;47.168;27.604;2023-06-10T09:47:02;99291.66;;;26.97;32.81
60427;BME280;46274;47.168;27.604;2023-06-10T09:53:47;99448.09;;;28.48;33.63
60427;BME280;46274;47.168;27.604;2023-06-10T10:00:19;99451.59;;;29.85;33.01
60427;BME280;46274;47.168;27.604;2023-06-10T10:06:28;99239.66;;;27.86;32.50
60427;BME280;46274;47.168;27.604;2023-06-10T10:12:36;99422.88;;;29.03;31.82
60427;BME280;46274;47.168;27.604;2023-06-10T10:18:46;99433.97;;;29.31;32.00
60427;BME280;46274;47.168;27.604;2023-06-10T10:25:12;99440.56;;;29.57;32.05
60427;BME280;46274;47.168;27.604;2023-06-10T10:31:40;99438.19;;;29.65;32.32
60427;BME280;46274;47.168;27.604;2023-06-10T10:37:46;99363.88;;;28.87;31.71
60427;BME280;46274;47.168;27.604;2023-06-10T10:43:52;99429.59;;;29.39;32.14
60427;BME280;46274;47.168;27.604;2023-06-10T10:49:56;99416.56;;;29.79;32.51
60427;BME280;46274;47.168;27.604;2023-06-10T10:56:06;99307.28;;;28.87;32.55
60427;BME280;46274;47.168;27.604;2023-06-10T11:02:16;99299.66;;;27.78;32.57
60427;BME280;46274;47.168;27.604;2023-06-10T11:14:54;99406.75;;;29.14;30.21
60427;BME280;46274;47.168;27.604;2023-06-10T11:21:04;99370.56;;;29.23;30.56
60427;BME280;46274;47.168;27.604;2023-06-10T11:33:41;99310.06;;;28.64;31.01
60427;BME280;46274;47.168;27.604;2023-06-10T11:39:58;99366.78;;;28.82;31.99
60427;BME280;46274;47.168;27.604;2023-06-10T11:46:03;99330.78;;;28.22;32.98
60427;BME280;46274;47.168;27.604;2023-06-10T11:52:08;99392.03;;;27.80;33.48
60427;BME280;46274;47.168;27.604;2023-06-10T12:04:40;99322.81;;;29.02;31.71
60427;BME280;46274;47.168;27.604;2023-06-10T12:10:46;99304.03;;;28.93;31.04
60427;BME280;46274;47.168;27.604;2023-06-10T12:24:08;99360.63;;;29.62;30.31
60427;BME280;46274;47.168;27.604;2023-06-10T12:30:26;99163.66;;;28.44;30.15
60427;BME280;46274;47.168;27.604;2023-06-10T12:36:37;99222.16;;;28.58;30.41
60427;BME280;46274;47.168;27.604;2023-06-10T12:42:43;99353.25;;;28.53;29.92
60427;BME280;46274;47.168;27.604;2023-06-10T12:48:56;99350.28;;;29.31;30.64
60427;BME280;46274;47.168;27.604;2023-06-10T12:55:13;99292.78;;;28.40;31.59
60427;BME280;46274;47.168;27.604;2023-06-10T13:01:22;99324.16;;;29.04;32.04
60427;BME280;46274;47.168;27.604;2023-06-10T13:07:33;99319.94;;;28.93;30.07
60427;BME280;46274;47.168;27.604;2023-06-10T13:13:41;99314.69;;;29.68;31.02
60427;BME280;46274;47.168;27.604;2023-06-10T13:19:54;99315.13;;;29.61;30.06
60427;BME280;46274;47.168;27.604;2023-06-10T13:26:09;99286.22;;;28.08;30.68
60427;BME280;46274;47.168;27.604;2023-06-10T13:32:13;99228.00;;;27.70;31.23
60427;BME280;46274;47.168;27.604;2023-06-10T13:38:20;99279.03;;;28.07;31.19
60427;BME280;46274;47.168;27.604;2023-06-10T13:44:31;99303.22;;;28.93;31.48
60427;BME280;46274;47.168;27.604;2023-06-10T13:50:46;99275.84;;;28.36;30.54
60427;BME280;46274;47.168;27.604;2023-06-10T13:56:51;99106.88;;;27.87;30.63
60427;BME280;46274;47.168;27.604;2023-06-10T14:03:07;99270.59;;;28.71;30.69
60427;BME280;46274;47.168;27.604;2023-06-10T14:09:10;99249.28;;;28.16;31.40
60427;BME280;46274;47.168;27.604;2023-06-10T14:15:17;99252.50;;;28.91;31.97
60427;BME280;46274;47.168;27.604;2023-06-10T14:21:19;99254.38;;;29.27;32.33
60427;BME280;46274;47.168;27.604;2023-06-10T14:27:23;99179.69;;;29.15;31.09
60427;BME280;46274;47.168;27.604;2023-06-10T14:33:26;99181.28;;;28.54;31.63
60427;BME280;46274;47.168;27.604;2023-06-10T14:39:28;99240.13;;;29.28;30.87
60427;BME280;46274;47.168;27.604;2023-06-10T14:45:31;99269.88;;;28.65;30.81
60427;BME280;46274;47.168;27.604;2023-06-10T14:51:36;99261.97;;;29.35;30.85
60427;BME280;46274;47.168;27.604;2023-06-10T14:57:40;99244.19;;;30.28;29.27
60427;BME280;46274;47.168;27.604;2023-06-10T15:03:45;99257.84;;;29.32;30.34
60427;BME280;46274;47.168;27.604;2023-06-10T15:10:02;99246.50;;;28.98;31.57
60427;BME280;46274;47.168;27.604;2023-06-10T15:16:20;99241.72;;;30.18;30.08
60427;BME280;46274;47.168;27.604;2023-06-10T15:22:25;99161.00;;;29.24;30.88
60427;BME280;46274;47.168;27.604;2023-06-10T15:28:36;99131.41;;;29.06;31.29
60427;BME280;46274;47.168;27.604;2023-06-10T15:34:42;99057.34;;;28.28;30.78
60427;BME280;46274;47.168;27.604;2023-06-10T15:47:56;99253.81;;;29.07;32.68
60427;BME280;46274;47.168;27.604;2023-06-10T15:54:06;99259.28;;;28.99;32.35
60427;BME280;46274;47.168;27.604;2023-06-10T16:00:11;99249.75;;;29.22;32.93
60427;BME280;46274;47.168;27.604;2023-06-10T16:06:13;99072.19;;;27.93;33.11
60427;BME280;46274;47.168;27.604;2023-06-10T16:12:23;99258.59;;;28.70;34.13
60427;BME280;46274;47.168;27.604;2023-06-10T16:18:32;99168.25;;;28.26;34.78
60427;BME280;46274;47.168;27.604;2023-06-10T16:24:43;99194.78;;;27.88;36.72
60427;BME280;46274;47.168;27.604;2023-06-10T16:30:47;99227.56;;;27.77;37.86
60427;BME280;46274;47.168;27.604;2023-06-10T16:36:49;99207.72;;;27.56;38.92
60427;BME280;46274;47.168;27.604;2023-06-10T16:43:23;99271.88;;;26.85;42.36
60427;BME280;46274;47.168;27.604;2023-06-10T16:49:40;99186.63;;;26.29;42.53
60427;BME280;46274;47.168;27.604;2023-06-10T17:02:31;99268.88;;;27.28;40.94
60427;BME280;46274;47.168;27.604;2023-06-10T17:08:46;99278.69;;;27.67;39.09
60427;BME280;46274;47.168;27.604;2023-06-10T17:15:03;99255.22;;;26.99;39.43
60427;BME280;46274;47.168;27.604;2023-06-10T17:21:08;99292.28;;;26.00;39.53
60427;BME280;46274;47.168;27.604;2023-06-10T17:27:18;99220.00;;;25.43;42.16
60427;BME280;46274;47.168;27.604;2023-06-10T17:33:30;99159.66;;;24.81;39.12
60427;BME280;46274;47.168;27.604;2023-06-10T17:39:35;99212.63;;;24.41;39.69
60427;BME280;46274;47.168;27.604;2023-06-10T17:52:54;99386.22;;;24.40;42.56
60427;BME280;46274;47.168;27.604;2023-06-10T17:59:09;99375.44;;;24.38;43.31
60427;BME280;46274;47.168;27.604;2023-06-10T18:05:15;99266.25;;;24.10;43.02
60427;BME280;46274;47.168;27.604;2023-06-10T18:11:31;99401.31;;;23.98;46.90
60427;BME280;46274;47.168;27.604;2023-06-10T18:17:45;99412.19;;;23.38;51.36
60427;BME280;46274;47.168;27.604;2023-06-10T18:24:19;99439.28;;;23.62;54.53
60427;BME280;46274;47.168;27.604;2023-06-10T18:37:30;99283.59;;;20.43;58.67
60427;BME280;46274;47.168;27.604;2023-06-10T18:43:36;99415.72;;;20.26;67.34
60427;BME280;46274;47.168;27.604;2023-06-10T18:49:46;99283.50;;;20.33;58.03
60427;BME280;46274;47.168;27.604;2023-06-10T18:55:54;99313.41;;;20.78;57.84
60427;BME280;46274;47.168;27.604;2023-06-10T19:02:01;99368.91;;;21.34;58.08
60427;BME280;46274;47.168;27.604;2023-06-10T19:08:05;99226.59;;;19.84;58.70
60427;BME280;46274;47.168;27.604;2023-06-10T19:14:26;99430.81;;;20.01;62.74
60427;BME280;46274;47.168;27.604;2023-06-10T19:20:35;99468.72;;;20.82;57.06
60427;BME280;46274;47.168;27.604;2023-06-10T19:26:38;99447.63;;;20.05;61.86
60427;BME280;46274;47.168;27.604;2023-06-10T19:32:46;99394.25;;;20.23;61.27
60427;BME280;46274;47.168;27.604;2023-06-10T19:38:52;99492.66;;;19.99;63.87
60427;BME280;46274;47.168;27.604;2023-06-10T19:44:56;99495.84;;;20.52;62.74
60427;BME280;46274;47.168;27.604;2023-06-10T19:51:00;99453.34;;;20.20;63.69
60427;BME280;46274;47.168;27.604;2023-06-10T19:57:09;99504.78;;;20.42;64.10
60427;BME280;46274;47.168;27.604;2023-06-10T20:03:13;99460.19;;;19.79;65.97
60427;BME280;46274;47.168;27.604;2023-06-10T20:09:31;99514.28;;;20.29;66.04
60427;BME280;46274;47.168;27.604;2023-06-10T20:16:13;99508.09;;;19.83;65.58
60427;BME280;46274;47.168;27.604;2023-06-10T20:22:23;99446.78;;;19.32;65.94
60427;BME280;46274;47.168;27.604;2023-06-10T20:28:25;99496.03;;;19.67;65.75
60427;BME280;46274;47.168;27.604;2023-06-10T20:34:30;99440.28;;;19.55;65.51
60427;BME280;46274;47.168;27.604;2023-06-10T20:40:33;99505.50;;;19.93;64.34
60427;BME280;46274;47.168;27.604;2023-06-10T20:46:36;99431.78;;;19.23;65.30
60427;BME280;46274;47.168;27.604;2023-06-10T20:52:38;99524.31;;;20.01;64.10
60427;BME280;46274;47.168;27.604;2023-06-10T20:58:55;99526.97;;;19.63;67.64
60427;BME280;46274;47.168;27.604;2023-06-10T21:04:57;99529.31;;;19.88;64.86
60427;BME280;46274;47.168;27.604;2023-06-10T21:11:07;99539.03;;;19.61;66.55
60427;BME280;46274;47.168;27.604;2023-06-10T21:17:12;99541.53;;;18.89;71.04
60427;BME280;46274;47.168;27.604;2023-06-10T21:23:19;99309.75;;;17.30;70.96
60427;BME280;46274;47.168;27.604;2023-06-10T21:29:28;99538.19;;;18.35;73.04
60427;BME280;46274;47.168;27.604;2023-06-10T21:35:34;99546.94;;;18.84;71.07
60427;BME280;46274;47.168;27.604;2023-06-10T21:41:52;99528.84;;;19.00;70.88
60427;BME280;46274;47.168;27.604;2023-06-10T21:48:09;99550.69;;;19.06;71.13
60427;BME280;46274;47.168;27.604;2023-06-10T21:54:15;99480.81;;;18.73;71.29
60427;BME280;46274;47.168;27.604;2023-06-10T22:00:19;99468.47;;;18.59;71.18
60427;BME280;46274;47.168;27.604;2023-06-10T22:06:25;99375.91;;;17.62;73.10
60427;BME280;46274;47.168;27.604;2023-06-10T22:12:48;99544.69;;;19.09;71.57
60427;BME280;46274;47.168;27.604;2023-06-10T22:19:14;99547.22;;;18.99;71.63
60427;BME280;46274;47.168;27.604;2023-06-10T22:25:21;99536.16;;;18.94;71.64
60427;BME280;46274;47.168;27.604;2023-06-10T22:31:47;99535.13;;;18.83;71.98
60427;BME280;46274;47.168;27.604;2023-06-10T22:37:51;99534.50;;;18.93;71.19
60427;BME280;46274;47.168;27.604;2023-06-10T22:44:04;99540.47;;;18.90;70.94
60427;BME280;46274;47.168;27.604;2023-06-10T22:50:10;99508.88;;;18.64;72.05
60427;BME280;46274;47.168;27.604;2023-06-10T22:56:15;99299.28;;;17.15;73.36
60427;BME280;46274;47.168;27.604;2023-06-10T23:02:34;99539.78;;;18.83;73.10
60427;BME280;46274;47.168;27.604;2023-06-10T23:08:39;99504.22;;;18.36;74.32
60427;BME280;46274;47.168;27.604;2023-06-10T23:14:42;99531.28;;;18.84;73.21
60427;BME280;46274;47.168;27.604;2023-06-10T23:20:52;99453.88;;;18.30;72.84
60427;BME280;46274;47.168;27.604;2023-06-10T23:27:05;99300.34;;;16.90;73.94
60427;BME280;46274;47.168;27.604;2023-06-10T23:33:38;99552.81;;;18.52;73.83
60427;BME280;46274;47.168;27.604;2023-06-10T23:40:04;99534.38;;;18.24;75.25
60427;BME280;46274;47.168;27.604;2023-06-10T23:46:09;99533.66;;;17.93;77.24
60427;BME280;46274;47.168;27.604;2023-06-10T23:52:19;99536.16;;;18.42;75.35
60427;BME280;46274;47.168;27.604;2023-06-10T23:58:44;99535.31;;;18.29;76.13
